sensor_id;sensor_type;location;lat;lon;timestamp;temperature;humidity
23335;DHT22;11839;48.598;8.870;2023-04-24T00:01:58;13.60;99.90
23335;DHT22;11839;48.598;8.870;2023-04-24T00:04:27;13.40;99.90
23335;DHT22;11839;48.598;8.870;2023-04-24T00:06:54;13.10;99.90
23335;DHT22;11839;48.598;8.870;2023-04-24T00:09:22;12.90;99.90
23335;DHT22;11839;48.598;8.870;2023-04-24T00:11:49;12.90;99.90
23335;DHT22;11839;48.598;8.870;2023-04-24T00:14:16;13.00;99.90
23335;DHT22;11839;48.598;8.870;2023-04-24T00:16:43;13.40;99.90
23335;DHT22;11839;48.598;8.870;2023-04-24T00:19:10;13.40;99.90
23335;DHT22;11839;48.598;8.870;2023-04-24T00:21:39;13.30;99.90
23335;DHT22;11839;48.598;8.870;2023-04-24T00:24:06;13.20;99.90
23335;DHT22;11839;48.598;8.870;2023-04-24T00:26:34;12.90;99.90
23335;DHT22;11839;48.598;8.870;2023-04-24T00:29:01;12.90;99.90
23335;DHT22;11839;48.598;8.870;2023-04-24T00:31:28;12.70;99.90
23335;DHT22;11839;48.598;8.870;2023-04-24T00:33:54;12.60;99.90
23335;DHT22;11839;48.598;8.870;2023-04-24T00:36:21;12.80;99.90
23335;DHT22;11839;48.598;8.870;2023-04-24T00:38:49;12.80;99.90
23335;DHT22;11839;48.598;8.870;2023-04-24T00:41:16;13.00;99.90
23335;DHT22;11839;48.598;8.870;2023-04-24T00:43:43;13.10;99.90
23335;DHT22;11839;48.598;8.870;2023-04-24T00:46:10;13.10;99.90
23335;DHT22;11839;48.598;8.870;2023-04-24T00:48:37;13.00;99.90
23335;DHT22;11839;48.598;8.870;2023-04-24T00:51:05;13.20;99.90
23335;DHT22;11839;48.598;8.870;2023-04-24T00:53:31;13.00;99.90
23335;DHT22;11839;48.598;8.870;2023-04-24T00:56:00;13.10;99.90
23335;DHT22;11839;48.598;8.870;2023-04-24T00:58:27;13.10;99.90
23335;DHT22;11839;48.598;8.870;2023-04-24T01:00:56;13.10;99.90
23335;DHT22;11839;48.598;8.870;2023-04-24T01:03:26;13.30;99.90
23335;DHT22;11839;48.598;8.870;2023-04-24T01:05:54;13.20;99.90
23335;DHT22;11839;48.598;8.870;2023-04-24T01:08:23;13.10;99.90
23335;DHT22;11839;48.598;8.870;2023-04-24T01:10:52;13.20;99.90
23335;DHT22;11839;48.598;8.870;2023-04-24T01:13:20;13.20;99.90
23335;DHT22;11839;48.598;8.870;2023-04-24T01:15:47;13.10;99.90
23335;DHT22;11839;48.598;8.870;2023-04-24T01:18:15;13.10;99.90
23335;DHT22;11839;48.598;8.870;2023-04-24T01:20:42;12.90;99.90
23335;DHT22;11839;48.598;8.870;2023-04-24T01:23:12;12.90;99.90
23335;DHT22;11839;48.598;8.870;2023-04-24T01:25:39;13.00;99.90
23335;DHT22;11839;48.598;8.870;2023-04-24T01:28:06;13.00;99.90
23335;DHT22;11839;48.598;8.870;2023-04-24T01:30:33;13.10;99.90
23335;DHT22;11839;48.598;8.870;2023-04-24T01:33:00;13.30;99.90
23335;DHT22;11839;48.598;8.870;2023-04-24T01:35:28;13.30;99.90
23335;DHT22;11839;48.598;8.870;2023-04-24T01:37:54;13.40;99.90
23335;DHT22;11839;48.598;8.870;2023-04-24T01:40:23;13.30;99.90
23335;DHT22;11839;48.598;8.870;2023-04-24T01:42:50;13.40;99.90
23335;DHT22;11839;48.598;8.870;2023-04-24T01:45:17;13.10;99.90
23335;DHT22;11839;48.598;8.870;2023-04-24T01:47:45;12.90;99.90
23335;DHT22;11839;48.598;8.870;2023-04-24T01:50:12;13.00;99.90
23335;DHT22;11839;48.598;8.870;2023-04-24T01:52:39;12.90;99.90
23335;DHT22;11839;48.598;8.870;2023-04-24T01:55:07;12.70;99.90
23335;DHT22;11839;48.598;8.870;2023-04-24T01:57:35;12.80;99.90
23335;DHT22;11839;48.598;8.870;2023-04-24T02:00:03;12.60;99.90
23335;DHT22;11839;48.598;8.870;2023-04-24T02:02:32;12.60;99.90
23335;DHT22;11839;48.598;8.870;2023-04-24T02:04:59;12.60;99.90
23335;DHT22;11839;48.598;8.870;2023-04-24T02:07:26;12.50;99.90
23335;DHT22;11839;48.598;8.870;2023-04-24T02:09:53;12.60;99.90
23335;DHT22;11839;48.598;8.870;2023-04-24T02:12:20;12.90;99.90
23335;DHT22;11839;48.598;8.870;2023-04-24T02:14:49;12.80;99.90
23335;DHT22;11839;48.598;8.870;2023-04-24T02:17:16;12.70;99.90
23335;DHT22;11839;48.598;8.870;2023-04-24T02:19:44;12.70;99.90
23335;DHT22;11839;48.598;8.870;2023-04-24T02:22:11;12.80;99.90
23335;DHT22;11839;48.598;8.870;2023-04-24T02:24:38;12.60;99.90
23335;DHT22;11839;48.598;8.870;2023-04-24T02:27:05;12.60;99.90
23335;DHT22;11839;48.598;8.870;2023-04-24T02:29:32;12.60;99.90
23335;DHT22;11839;48.598;8.870;2023-04-24T02:32:00;12.50;99.90
23335;DHT22;11839;48.598;8.870;2023-04-24T02:34:27;12.30;99.90
23335;DHT22;11839;48.598;8.870;2023-04-24T02:36:54;12.30;99.90
23335;DHT22;11839;48.598;8.870;2023-04-24T02:39:20;12.00;99.90
23335;DHT22;11839;48.598;8.870;2023-04-24T02:41:47;12.10;99.90
23335;DHT22;11839;48.598;8.870;2023-04-24T02:44:14;12.00;99.90
23335;DHT22;11839;48.598;8.870;2023-04-24T02:46:42;11.90;99.90
23335;DHT22;11839;48.598;8.870;2023-04-24T02:49:11;11.90;99.90
23335;DHT22;11839;48.598;8.870;2023-04-24T02:51:38;11.80;99.90
23335;DHT22;11839;48.598;8.870;2023-04-24T02:54:06;11.80;99.90
23335;DHT22;11839;48.598;8.870;2023-04-24T02:56:33;12.10;99.90
23335;DHT22;11839;48.598;8.870;2023-04-24T02:59:00;12.20;99.90
23335;DHT22;11839;48.598;8.870;2023-04-24T03:01:27;12.00;99.90
23335;DHT22;11839;48.598;8.870;2023-04-24T03:03:54;12.00;99.90
23335;DHT22;11839;48.598;8.870;2023-04-24T03:06:22;12.20;99.90
23335;DHT22;11839;48.598;8.870;2023-04-24T03:08:48;12.10;99.90
23335;DHT22;11839;48.598;8.870;2023-04-24T03:11:15;12.10;99.90
23335;DHT22;11839;48.598;8.870;2023-04-24T03:13:42;12.00;99.90
23335;DHT22;11839;48.598;8.870;2023-04-24T03:16:09;12.10;99.90
23335;DHT22;11839;48.598;8.870;2023-04-24T03:18:36;12.00;99.90
23335;DHT22;11839;48.598;8.870;2023-04-24T03:21:03;11.90;99.90
23335;DHT22;11839;48.598;8.870;2023-04-24T03:23:31;12.00;99.90
23335;DHT22;11839;48.598;8.870;2023-04-24T03:25:58;11.90;99.90
23335;DHT22;11839;48.598;8.870;2023-04-24T03:28:25;11.80;99.90
23335;DHT22;11839;48.598;8.870;2023-04-24T03:30:52;11.70;99.90
23335;DHT22;11839;48.598;8.870;2023-04-24T03:33:19;11.80;99.90
23335;DHT22;11839;48.598;8.870;2023-04-24T03:35:46;12.10;99.90
23335;DHT22;11839;48.598;8.870;2023-04-24T03:38:12;12.30;99.90
23335;DHT22;11839;48.598;8.870;2023-04-24T03:40:41;12.20;99.90
23335;DHT22;11839;48.598;8.870;2023-04-24T03:43:07;12.10;99.90
23335;DHT22;11839;48.598;8.870;2023-04-24T03:45:34;12.00;99.90
23335;DHT22;11839;48.598;8.870;2023-04-24T03:48:01;12.10;99.90
23335;DHT22;11839;48.598;8.870;2023-04-24T03:50:28;12.00;99.90
23335;DHT22;11839;48.598;8.870;2023-04-24T03:52:55;12.40;99.90
23335;DHT22;11839;48.598;8.870;2023-04-24T03:55:22;12.30;99.90
23335;DHT22;11839;48.598;8.870;2023-04-24T03:57:50;12.20;99.90
23335;DHT22;11839;48.598;8.870;2023-04-24T04:00:17;12.30;99.90
23335;DHT22;11839;48.598;8.870;2023-04-24T04:02:44;12.40;99.90
23335;DHT22;11839;48.598;8.870;2023-04-24T04:05:10;12.60;99.90
23335;DHT22;11839;48.598;8.870;2023-04-24T04:07:37;12.60;99.90
23335;DHT22;11839;48.598;8.870;2023-04-24T04:10:05;12.70;99.90
23335;DHT22;11839;48.598;8.870;2023-04-24T04:12:32;12.80;99.90
23335;DHT22;11839;48.598;8.870;2023-04-24T04:15:00;12.80;99.90
23335;DHT22;11839;48.598;8.870;2023-04-24T04:17:27;12.90;99.90
23335;DHT22;11839;48.598;8.870;2023-04-24T04:19:54;12.90;99.90
23335;DHT22;11839;48.598;8.870;2023-04-24T04:22:21;12.50;99.90
23335;DHT22;11839;48.598;8.870;2023-04-24T04:24:48;12.50;99.90
23335;DHT22;11839;48.598;8.870;2023-04-24T04:27:16;12.40;99.90
23335;DHT22;11839;48.598;8.870;2023-04-24T04:29:44;12.50;99.90
23335;DHT22;11839;48.598;8.870;2023-04-24T04:32:12;12.60;99.90
23335;DHT22;11839;48.598;8.870;2023-04-24T04:34:39;12.60;99.90
23335;DHT22;11839;48.598;8.870;2023-04-24T04:37:06;12.60;99.90
23335;DHT22;11839;48.598;8.870;2023-04-24T04:39:32;12.60;99.90
23335;DHT22;11839;48.598;8.870;2023-04-24T04:41:59;12.90;99.90
23335;DHT22;11839;48.598;8.870;2023-04-24T04:44:26;12.60;99.90
23335;DHT22;11839;48.598;8.870;2023-04-24T04:46:54;12.10;99.90
23335;DHT22;11839;48.598;8.870;2023-04-24T04:49:23;11.50;99.90
23335;DHT22;11839;48.598;8.870;2023-04-24T04:51:50;11.40;99.90
23335;DHT22;11839;48.598;8.870;2023-04-24T04:54:17;11.50;99.90
23335;DHT22;11839;48.598;8.870;2023-04-24T04:56:44;11.40;99.90
23335;DHT22;11839;48.598;8.870;2023-04-24T04:59:11;11.50;99.90
23335;DHT22;11839;48.598;8.870;2023-04-24T05:01:38;11.70;99.90
23335;DHT22;11839;48.598;8.870;2023-04-24T05:04:05;11.50;99.90
23335;DHT22;11839;48.598;8.870;2023-04-24T05:06:33;11.60;99.90
23335;DHT22;11839;48.598;8.870;2023-04-24T05:09:00;11.60;99.90
23335;DHT22;11839;48.598;8.870;2023-04-24T05:11:28;11.50;99.90
23335;DHT22;11839;48.598;8.870;2023-04-24T05:13:56;11.50;99.90
23335;DHT22;11839;48.598;8.870;2023-04-24T05:16:22;11.70;99.90
23335;DHT22;11839;48.598;8.870;2023-04-24T05:18:49;11.90;99.90
23335;DHT22;11839;48.598;8.870;2023-04-24T05:21:16;11.90;99.90
23335;DHT22;11839;48.598;8.870;2023-04-24T05:23:44;12.10;99.90
23335;DHT22;11839;48.598;8.870;2023-04-24T05:26:11;12.20;99.90
23335;DHT22;11839;48.598;8.870;2023-04-24T05:28:39;12.20;99.90
23335;DHT22;11839;48.598;8.870;2023-04-24T05:31:06;12.00;99.90
23335;DHT22;11839;48.598;8.870;2023-04-24T05:33:33;12.10;99.90
23335;DHT22;11839;48.598;8.870;2023-04-24T05:35:59;12.10;99.90
23335;DHT22;11839;48.598;8.870;2023-04-24T05:38:26;11.90;99.90
23335;DHT22;11839;48.598;8.870;2023-04-24T05:40:54;12.20;99.90
23335;DHT22;11839;48.598;8.870;2023-04-24T05:43:21;12.10;99.90
23335;DHT22;11839;48.598;8.870;2023-04-24T05:45:48;12.30;99.90
23335;DHT22;11839;48.598;8.870;2023-04-24T05:48:15;12.20;99.90
23335;DHT22;11839;48.598;8.870;2023-04-24T05:50:42;12.30;99.90
23335;DHT22;11839;48.598;8.870;2023-04-24T05:53:09;12.20;99.90
23335;DHT22;11839;48.598;8.870;2023-04-24T05:55:36;12.30;99.90
23335;DHT22;11839;48.598;8.870;2023-04-24T05:58:04;12.30;99.90
23335;DHT22;11839;48.598;8.870;2023-04-24T06:00:31;12.30;99.90
23335;DHT22;11839;48.598;8.870;2023-04-24T06:02:59;12.60;99.90
23335;DHT22;11839;48.598;8.870;2023-04-24T06:05:26;12.70;99.90
23335;DHT22;11839;48.598;8.870;2023-04-24T06:07:53;12.60;99.90
23335;DHT22;11839;48.598;8.870;2023-04-24T06:10:20;12.80;99.90
23335;DHT22;11839;48.598;8.870;2023-04-24T06:12:46;12.90;99.90
23335;DHT22;11839;48.598;8.870;2023-04-24T06:15:14;12.90;99.90
23335;DHT22;11839;48.598;8.870;2023-04-24T06:17:41;13.00;99.90
23335;DHT22;11839;48.598;8.870;2023-04-24T06:20:09;13.20;99.90
23335;DHT22;11839;48.598;8.870;2023-04-24T06:22:36;13.20;99.90
23335;DHT22;11839;48.598;8.870;2023-04-24T06:25:06;13.30;99.90
23335;DHT22;11839;48.598;8.870;2023-04-24T06:27:35;13.70;99.90
23335;DHT22;11839;48.598;8.870;2023-04-24T06:30:02;13.90;99.90
23335;DHT22;11839;48.598;8.870;2023-04-24T06:32:30;14.00;99.90
23335;DHT22;11839;48.598;8.870;2023-04-24T06:34:57;14.20;99.90
23335;DHT22;11839;48.598;8.870;2023-04-24T06:37:24;13.90;99.90
23335;DHT22;11839;48.598;8.870;2023-04-24T06:39:51;13.70;99.90
23335;DHT22;11839;48.598;8.870;2023-04-24T06:42:18;13.50;99.90
23335;DHT22;11839;48.598;8.870;2023-04-24T06:44:46;13.30;99.90
23335;DHT22;11839;48.598;8.870;2023-04-24T06:47:13;13.50;99.90
23335;DHT22;11839;48.598;8.870;2023-04-24T06:49:41;13.40;99.90
23335;DHT22;11839;48.598;8.870;2023-04-24T06:52:08;13.20;99.90
23335;DHT22;11839;48.598;8.870;2023-04-24T06:54:35;13.30;99.90
23335;DHT22;11839;48.598;8.870;2023-04-24T06:57:02;13.30;99.90
23335;DHT22;11839;48.598;8.870;2023-04-24T06:59:29;13.10;99.90
23335;DHT22;11839;48.598;8.870;2023-04-24T07:01:56;12.60;99.90
23335;DHT22;11839;48.598;8.870;2023-04-24T07:04:23;12.10;99.90
23335;DHT22;11839;48.598;8.870;2023-04-24T07:06:52;11.50;99.90
23335;DHT22;11839;48.598;8.870;2023-04-24T07:09:21;11.50;99.90
23335;DHT22;11839;48.598;8.870;2023-04-24T07:11:49;11.70;99.90
23335;DHT22;11839;48.598;8.870;2023-04-24T07:14:16;12.00;99.90
23335;DHT22;11839;48.598;8.870;2023-04-24T07:16:43;12.00;99.90
23335;DHT22;11839;48.598;8.870;2023-04-24T07:19:11;12.10;99.90
23335;DHT22;11839;48.598;8.870;2023-04-24T07:21:37;12.40;99.90
23335;DHT22;11839;48.598;8.870;2023-04-24T07:24:06;12.60;99.90
23335;DHT22;11839;48.598;8.870;2023-04-24T07:26:37;12.90;99.90
23335;DHT22;11839;48.598;8.870;2023-04-24T07:29:04;12.80;99.90
23335;DHT22;11839;48.598;8.870;2023-04-24T07:31:30;12.70;99.90
23335;DHT22;11839;48.598;8.870;2023-04-24T07:33:57;12.70;99.90
23335;DHT22;11839;48.598;8.870;2023-04-24T07:36:24;12.70;99.90
23335;DHT22;11839;48.598;8.870;2023-04-24T07:38:51;12.70;99.90
23335;DHT22;11839;48.598;8.870;2023-04-24T07:41:20;12.90;99.90
23335;DHT22;11839;48.598;8.870;2023-04-24T07:43:47;12.70;99.90
23335;DHT22;11839;48.598;8.870;2023-04-24T07:46:15;12.80;99.90
23335;DHT22;11839;48.598;8.870;2023-04-24T07:48:42;12.90;99.90
23335;DHT22;11839;48.598;8.870;2023-04-24T07:51:09;13.20;99.90
23335;DHT22;11839;48.598;8.870;2023-04-24T07:53:38;13.40;99.90
23335;DHT22;11839;48.598;8.870;2023-04-24T07:56:05;13.70;99.90
23335;DHT22;11839;48.598;8.870;2023-04-24T07:58:34;13.60;99.90
23335;DHT22;11839;48.598;8.870;2023-04-24T08:01:01;13.60;99.90
23335;DHT22;11839;48.598;8.870;2023-04-24T08:03:27;13.50;99.90
23335;DHT22;11839;48.598;8.870;2023-04-24T08:05:55;13.00;99.90
23335;DHT22;11839;48.598;8.870;2023-04-24T08:08:22;12.70;99.90
23335;DHT22;11839;48.598;8.870;2023-04-24T08:10:49;12.90;99.90
23335;DHT22;11839;48.598;8.870;2023-04-24T08:13:16;13.10;99.90
23335;DHT22;11839;48.598;8.870;2023-04-24T08:15:45;13.50;99.90
23335;DHT22;11839;48.598;8.870;2023-04-24T08:18:12;13.80;99.90
23335;DHT22;11839;48.598;8.870;2023-04-24T08:20:39;14.10;99.50
23335;DHT22;11839;48.598;8.870;2023-04-24T08:23:06;13.90;99.80
23335;DHT22;11839;48.598;8.870;2023-04-24T08:25:33;13.60;99.20
23335;DHT22;11839;48.598;8.870;2023-04-24T08:28:01;14.10;99.80
23335;DHT22;11839;48.598;8.870;2023-04-24T08:30:29;14.30;97.60
23335;DHT22;11839;48.598;8.870;2023-04-24T08:32:57;14.10;97.60
23335;DHT22;11839;48.598;8.870;2023-04-24T08:35:24;13.80;97.20
23335;DHT22;11839;48.598;8.870;2023-04-24T08:37:52;13.90;97.90
23335;DHT22;11839;48.598;8.870;2023-04-24T08:40:22;13.60;97.60
23335;DHT22;11839;48.598;8.870;2023-04-24T08:42:54;13.50;98.50
23335;DHT22;11839;48.598;8.870;2023-04-24T08:45:21;13.60;98.70
23335;DHT22;11839;48.598;8.870;2023-04-24T08:47:49;13.40;98.20
23335;DHT22;11839;48.598;8.870;2023-04-24T08:50:18;13.10;98.10
23335;DHT22;11839;48.598;8.870;2023-04-24T08:52:44;13.30;98.70
23335;DHT22;11839;48.598;8.870;2023-04-24T08:55:11;13.40;98.80
23335;DHT22;11839;48.598;8.870;2023-04-24T08:57:40;13.40;97.50
23335;DHT22;11839;48.598;8.870;2023-04-24T09:00:10;13.00;97.60
23335;DHT22;11839;48.598;8.870;2023-04-24T09:02:39;13.10;97.30
23335;DHT22;11839;48.598;8.870;2023-04-24T09:05:08;13.20;96.70
23335;DHT22;11839;48.598;8.870;2023-04-24T09:07:39;13.80;97.90
23335;DHT22;11839;48.598;8.870;2023-04-24T09:10:08;13.90;96.70
23335;DHT22;11839;48.598;8.870;2023-04-24T09:12:35;13.50;96.40
23335;DHT22;11839;48.598;8.870;2023-04-24T09:15:03;13.60;96.60
23335;DHT22;11839;48.598;8.870;2023-04-24T09:17:30;13.50;96.90
23335;DHT22;11839;48.598;8.870;2023-04-24T09:19:57;13.60;97.20
23335;DHT22;11839;48.598;8.870;2023-04-24T09:22:24;14.20;95.70
23335;DHT22;11839;48.598;8.870;2023-04-24T09:25:02;14.50;93.10
23335;DHT22;11839;48.598;8.870;2023-04-24T09:27:29;14.10;93.80
23335;DHT22;11839;48.598;8.870;2023-04-24T09:29:57;13.90;92.60
23335;DHT22;11839;48.598;8.870;2023-04-24T09:32:24;13.50;92.50
23335;DHT22;11839;48.598;8.870;2023-04-24T09:35:05;13.40;93.70
23335;DHT22;11839;48.598;8.870;2023-04-24T09:37:35;13.80;93.30
23335;DHT22;11839;48.598;8.870;2023-04-24T09:40:11;14.30;93.60
23335;DHT22;11839;48.598;8.870;2023-04-24T09:42:39;14.60;92.10
23335;DHT22;11839;48.598;8.870;2023-04-24T09:45:09;14.60;90.90
23335;DHT22;11839;48.598;8.870;2023-04-24T09:47:37;14.80;90.80
23335;DHT22;11839;48.598;8.870;2023-04-24T09:50:12;14.80;90.40
23335;DHT22;11839;48.598;8.870;2023-04-24T09:52:46;14.90;90.50
23335;DHT22;11839;48.598;8.870;2023-04-24T09:55:20;14.90;89.70
23335;DHT22;11839;48.598;8.870;2023-04-24T09:57:51;14.70;90.60
23335;DHT22;11839;48.598;8.870;2023-04-24T10:00:20;14.30;91.00
23335;DHT22;11839;48.598;8.870;2023-04-24T10:02:50;13.80;91.80
23335;DHT22;11839;48.598;8.870;2023-04-24T10:05:18;13.60;92.50
23335;DHT22;11839;48.598;8.870;2023-04-24T10:07:46;13.50;92.80
23335;DHT22;11839;48.598;8.870;2023-04-24T10:10:20;13.50;92.70
23335;DHT22;11839;48.598;8.870;2023-04-24T10:12:47;13.80;92.90
23335;DHT22;11839;48.598;8.870;2023-04-24T10:15:15;14.30;92.90
23335;DHT22;11839;48.598;8.870;2023-04-24T10:17:47;14.70;93.00
23335;DHT22;11839;48.598;8.870;2023-04-24T10:20:18;14.90;92.70
23335;DHT22;11839;48.598;8.870;2023-04-24T10:22:47;14.70;92.50
23335;DHT22;11839;48.598;8.870;2023-04-24T10:25:18;14.50;93.10
23335;DHT22;11839;48.598;8.870;2023-04-24T10:27:46;14.70;93.20
23335;DHT22;11839;48.598;8.870;2023-04-24T10:30:14;14.50;94.50
23335;DHT22;11839;48.598;8.870;2023-04-24T10:32:41;14.60;93.80
23335;DHT22;11839;48.598;8.870;2023-04-24T10:35:08;14.80;94.10
23335;DHT22;11839;48.598;8.870;2023-04-24T10:37:38;15.10;93.80
23335;DHT22;11839;48.598;8.870;2023-04-24T10:40:07;15.40;93.10
23335;DHT22;11839;48.598;8.870;2023-04-24T10:42:40;15.30;93.80
23335;DHT22;11839;48.598;8.870;2023-04-24T10:45:16;14.20;93.90
23335;DHT22;11839;48.598;8.870;2023-04-24T10:47:51;13.60;95.00
23335;DHT22;11839;48.598;8.870;2023-04-24T10:50:18;14.00;95.10
23335;DHT22;11839;48.598;8.870;2023-04-24T10:52:46;14.00;94.30
23335;DHT22;11839;48.598;8.870;2023-04-24T10:55:13;13.80;94.40
23335;DHT22;11839;48.598;8.870;2023-04-24T10:58:01;14.30;94.80
23335;DHT22;11839;48.598;8.870;2023-04-24T11:00:28;14.50;94.50
23335;DHT22;11839;48.598;8.870;2023-04-24T11:02:55;14.60;94.10
23335;DHT22;11839;48.598;8.870;2023-04-24T11:05:49;14.50;94.10
23335;DHT22;11839;48.598;8.870;2023-04-24T11:08:23;14.10;94.10
23335;DHT22;11839;48.598;8.870;2023-04-24T11:10:59;13.90;94.50
23335;DHT22;11839;48.598;8.870;2023-04-24T11:16:14;14.10;94.60
23335;DHT22;11839;48.598;8.870;2023-04-24T11:18:42;14.00;95.20
23335;DHT22;11839;48.598;8.870;2023-04-24T11:21:12;13.80;94.80
23335;DHT22;11839;48.598;8.870;2023-04-24T11:23:39;13.60;95.60
23335;DHT22;11839;48.598;8.870;2023-04-24T11:26:10;13.50;95.90
23335;DHT22;11839;48.598;8.870;2023-04-24T11:28:44;13.30;95.80
23335;DHT22;11839;48.598;8.870;2023-04-24T11:31:36;13.30;95.90
23335;DHT22;11839;48.598;8.870;2023-04-24T11:34:08;13.80;96.10
23335;DHT22;11839;48.598;8.870;2023-04-24T11:36:36;14.10;95.40
23335;DHT22;11839;48.598;8.870;2023-04-24T11:39:03;14.30;94.70
23335;DHT22;11839;48.598;8.870;2023-04-24T11:41:30;14.30;94.50
23335;DHT22;11839;48.598;8.870;2023-04-24T11:43:59;14.30;94.40
23335;DHT22;11839;48.598;8.870;2023-04-24T11:46:29;14.50;94.60
23335;DHT22;11839;48.598;8.870;2023-04-24T11:48:57;14.30;94.40
23335;DHT22;11839;48.598;8.870;2023-04-24T11:51:25;14.30;94.90
23335;DHT22;11839;48.598;8.870;2023-04-24T11:53:53;14.30;94.40
23335;DHT22;11839;48.598;8.870;2023-04-24T11:56:21;14.50;94.10
23335;DHT22;11839;48.598;8.870;2023-04-24T11:58:48;14.60;94.50
23335;DHT22;11839;48.598;8.870;2023-04-24T12:01:17;14.30;94.50
23335;DHT22;11839;48.598;8.870;2023-04-24T12:03:47;14.10;94.30
23335;DHT22;11839;48.598;8.870;2023-04-24T12:06:15;13.70;95.10
23335;DHT22;11839;48.598;8.870;2023-04-24T12:08:42;13.60;95.10
23335;DHT22;11839;48.598;8.870;2023-04-24T12:11:15;13.40;95.30
23335;DHT22;11839;48.598;8.870;2023-04-24T12:13:43;13.40;96.20
23335;DHT22;11839;48.598;8.870;2023-04-24T12:16:10;13.60;95.10
23335;DHT22;11839;48.598;8.870;2023-04-24T12:18:43;13.50;95.00
23335;DHT22;11839;48.598;8.870;2023-04-24T12:21:17;13.60;95.50
23335;DHT22;11839;48.598;8.870;2023-04-24T12:23:45;13.80;95.70
23335;DHT22;11839;48.598;8.870;2023-04-24T12:26:12;14.20;95.70
23335;DHT22;11839;48.598;8.870;2023-04-24T12:28:42;14.00;97.70
23335;DHT22;11839;48.598;8.870;2023-04-24T12:31:09;13.30;99.90
23335;DHT22;11839;48.598;8.870;2023-04-24T12:33:36;12.90;99.90
23335;DHT22;11839;48.598;8.870;2023-04-24T12:36:05;12.90;99.90
23335;DHT22;11839;48.598;8.870;2023-04-24T12:38:33;13.20;99.90
23335;DHT22;11839;48.598;8.870;2023-04-24T12:41:07;13.50;99.90
23335;DHT22;11839;48.598;8.870;2023-04-24T12:43:34;13.60;99.40
23335;DHT22;11839;48.598;8.870;2023-04-24T12:46:02;13.40;99.40
23335;DHT22;11839;48.598;8.870;2023-04-24T12:48:29;13.30;98.70
23335;DHT22;11839;48.598;8.870;2023-04-24T12:50:57;13.50;99.30
23335;DHT22;11839;48.598;8.870;2023-04-24T12:53:28;13.70;98.20
23335;DHT22;11839;48.598;8.870;2023-04-24T12:55:56;13.60;97.70
23335;DHT22;11839;48.598;8.870;2023-04-24T12:58:23;13.60;97.00
23335;DHT22;11839;48.598;8.870;2023-04-24T13:00:50;13.40;97.30
23335;DHT22;11839;48.598;8.870;2023-04-24T13:03:18;13.20;97.00
23335;DHT22;11839;48.598;8.870;2023-04-24T13:05:45;13.40;97.60
23335;DHT22;11839;48.598;8.870;2023-04-24T13:08:11;13.60;96.40
23335;DHT22;11839;48.598;8.870;2023-04-24T13:10:40;13.40;95.60
23335;DHT22;11839;48.598;8.870;2023-04-24T13:13:07;13.60;96.10
23335;DHT22;11839;48.598;8.870;2023-04-24T13:15:34;13.80;96.60
23335;DHT22;11839;48.598;8.870;2023-04-24T13:18:02;13.90;96.10
23335;DHT22;11839;48.598;8.870;2023-04-24T13:20:28;13.70;95.30
23335;DHT22;11839;48.598;8.870;2023-04-24T13:22:55;14.20;95.80
23335;DHT22;11839;48.598;8.870;2023-04-24T13:25:22;13.80;94.20
23335;DHT22;11839;48.598;8.870;2023-04-24T13:27:51;13.80;94.60
23335;DHT22;11839;48.598;8.870;2023-04-24T13:30:18;13.70;94.90
23335;DHT22;11839;48.598;8.870;2023-04-24T13:32:45;13.60;94.60
23335;DHT22;11839;48.598;8.870;2023-04-24T13:35:12;13.50;94.50
23335;DHT22;11839;48.598;8.870;2023-04-24T13:37:39;13.60;94.30
23335;DHT22;11839;48.598;8.870;2023-04-24T13:40:06;13.50;94.50
23335;DHT22;11839;48.598;8.870;2023-04-24T13:42:33;13.80;95.20
23335;DHT22;11839;48.598;8.870;2023-04-24T13:45:02;14.00;94.30
23335;DHT22;11839;48.598;8.870;2023-04-24T13:47:29;14.00;94.10
23335;DHT22;11839;48.598;8.870;2023-04-24T13:49:56;14.10;94.10
23335;DHT22;11839;48.598;8.870;2023-04-24T13:52:23;13.50;94.10
23335;DHT22;11839;48.598;8.870;2023-04-24T13:54:50;13.50;94.50
23335;DHT22;11839;48.598;8.870;2023-04-24T13:57:16;13.60;94.10
23335;DHT22;11839;48.598;8.870;2023-04-24T13:59:43;13.50;95.00
23335;DHT22;11839;48.598;8.870;2023-04-24T14:02:12;13.70;94.20
23335;DHT22;11839;48.598;8.870;2023-04-24T14:04:39;13.60;94.30
23335;DHT22;11839;48.598;8.870;2023-04-24T14:07:05;13.50;94.10
23335;DHT22;11839;48.598;8.870;2023-04-24T14:09:33;13.40;94.10
23335;DHT22;11839;48.598;8.870;2023-04-24T14:12:00;13.30;94.40
23335;DHT22;11839;48.598;8.870;2023-04-24T14:14:28;13.30;94.90
23335;DHT22;11839;48.598;8.870;2023-04-24T14:16:55;13.50;94.80
23335;DHT22;11839;48.598;8.870;2023-04-24T14:19:24;13.90;94.60
23335;DHT22;11839;48.598;8.870;2023-04-24T14:21:50;14.10;94.10
23335;DHT22;11839;48.598;8.870;2023-04-24T14:24:18;14.00;94.00
23335;DHT22;11839;48.598;8.870;2023-04-24T14:26:45;14.10;93.90
23335;DHT22;11839;48.598;8.870;2023-04-24T14:29:12;13.80;94.20
23335;DHT22;11839;48.598;8.870;2023-04-24T14:31:38;13.90;94.40
23335;DHT22;11839;48.598;8.870;2023-04-24T14:34:05;14.20;93.90
23335;DHT22;11839;48.598;8.870;2023-04-24T14:36:34;14.60;93.80
23335;DHT22;11839;48.598;8.870;2023-04-24T14:39:01;14.30;93.50
23335;DHT22;11839;48.598;8.870;2023-04-24T14:41:31;14.10;93.80
23335;DHT22;11839;48.598;8.870;2023-04-24T14:44:01;13.90;94.40
23335;DHT22;11839;48.598;8.870;2023-04-24T14:46:27;14.00;93.50
23335;DHT22;11839;48.598;8.870;2023-04-24T14:48:54;13.80;93.70
23335;DHT22;11839;48.598;8.870;2023-04-24T14:51:21;13.60;94.00
23335;DHT22;11839;48.598;8.870;2023-04-24T14:53:49;13.80;94.60
23335;DHT22;11839;48.598;8.870;2023-04-24T14:56:16;13.90;93.80
23335;DHT22;11839;48.598;8.870;2023-04-24T14:58:43;13.90;93.70
23335;DHT22;11839;48.598;8.870;2023-04-24T15:01:10;14.60;94.10
23335;DHT22;11839;48.598;8.870;2023-04-24T15:03:37;15.60;92.80
23335;DHT22;11839;48.598;8.870;2023-04-24T15:06:04;15.80;92.20
23335;DHT22;11839;48.598;8.870;2023-04-24T15:08:31;15.70;91.80
23335;DHT22;11839;48.598;8.870;2023-04-24T15:10:59;15.70;91.90
23335;DHT22;11839;48.598;8.870;2023-04-24T15:13:26;16.00;91.80
23335;DHT22;11839;48.598;8.870;2023-04-24T15:15:53;16.50;91.60
23335;DHT22;11839;48.598;8.870;2023-04-24T15:18:20;17.00;90.20
23335;DHT22;11839;48.598;8.870;2023-04-24T15:20:46;16.90;90.00
23335;DHT22;11839;48.598;8.870;2023-04-24T15:23:13;16.20;90.90
23335;DHT22;11839;48.598;8.870;2023-04-24T15:25:40;15.90;91.50
23335;DHT22;11839;48.598;8.870;2023-04-24T15:28:09;15.80;92.00
23335;DHT22;11839;48.598;8.870;2023-04-24T15:30:36;16.30;91.60
23335;DHT22;11839;48.598;8.870;2023-04-24T15:33:03;15.80;91.30
23335;DHT22;11839;48.598;8.870;2023-04-24T15:35:30;15.70;92.30
23335;DHT22;11839;48.598;8.870;2023-04-24T15:37:56;15.70;91.60